sensor_id;sensor_type;location;lat;lon;timestamp;temperature;humidity
47368;DHT22;34646;47.964;7.982;2023-08-21T00:03:57;25.30;86.40
47368;DHT22;34646;47.964;7.982;2023-08-21T00:09:58;25.30;92.40
47368;DHT22;34646;47.964;7.982;2023-08-21T00:15:59;24.90;86.30
47368;DHT22;34646;47.964;7.982;2023-08-21T00:22:00;24.90;92.30
47368;DHT22;34646;47.964;7.982;2023-08-21T00:28:00;25.40;86.90
47368;DHT22;34646;47.964;7.982;2023-08-21T00:34:01;24.90;92.30
47368;DHT22;34646;47.964;7.982;2023-08-21T00:40:02;24.60;86.10
47368;DHT22;34646;47.964;7.982;2023-08-21T00:46:03;25.30;92.40
47368;DHT22;34646;47.964;7.982;2023-08-21T00:52:03;25.00;86.20
47368;DHT22;34646;47.964;7.982;2023-08-21T00:58:05;25.20;92.50
47368;DHT22;34646;47.964;7.982;2023-08-21T01:04:06;25.20;86.30
47368;DHT22;34646;47.964;7.982;2023-08-21T01:10:22;25.00;90.70
47368;DHT22;34646;47.964;7.982;2023-08-21T01:16:27;25.00;92.40
47368;DHT22;34646;47.964;7.982;2023-08-21T01:22:37;25.10;92.40
47368;DHT22;34646;47.964;7.982;2023-08-21T01:28:38;25.00;92.40
47368;DHT22;34646;47.964;7.982;2023-08-21T01:34:38;25.00;86.90
47368;DHT22;34646;47.964;7.982;2023-08-21T01:40:40;25.00;92.30
47368;DHT22;34646;47.964;7.982;2023-08-21T01:46:41;24.80;92.30
47368;DHT22;34646;47.964;7.982;2023-08-21T01:52:43;25.20;92.50
47368;DHT22;34646;47.964;7.982;2023-08-21T01:58:43;25.10;86.50
47368;DHT22;34646;47.964;7.982;2023-08-21T02:04:44;25.10;92.30
47368;DHT22;34646;47.964;7.982;2023-08-21T02:10:51;25.20;86.40
47368;DHT22;34646;47.964;7.982;2023-08-21T02:16:52;25.10;92.40
47368;DHT22;34646;47.964;7.982;2023-08-21T02:22:52;25.00;86.40
47368;DHT22;34646;47.964;7.982;2023-08-21T02:28:53;24.90;92.30
47368;DHT22;34646;47.964;7.982;2023-08-21T02:34:53;24.90;87.00
47368;DHT22;34646;47.964;7.982;2023-08-21T02:40:54;24.90;92.30
47368;DHT22;34646;47.964;7.982;2023-08-21T02:46:55;24.90;86.90
47368;DHT22;34646;47.964;7.982;2023-08-21T02:52:55;25.10;92.40
47368;DHT22;34646;47.964;7.982;2023-08-21T02:58:56;24.90;92.40
47368;DHT22;34646;47.964;7.982;2023-08-21T03:04:57;24.80;86.10
47368;DHT22;34646;47.964;7.982;2023-08-21T03:10:58;25.20;92.40
47368;DHT22;34646;47.964;7.982;2023-08-21T03:16:58;25.30;86.00
47368;DHT22;34646;47.964;7.982;2023-08-21T03:22:59;25.00;92.40
47368;DHT22;34646;47.964;7.982;2023-08-21T03:29:01;25.10;92.40
47368;DHT22;34646;47.964;7.982;2023-08-21T03:35:02;24.90;92.00
47368;DHT22;34646;47.964;7.982;2023-08-21T03:41:02;25.40;87.10
47368;DHT22;34646;47.964;7.982;2023-08-21T03:47:06;25.10;92.40
47368;DHT22;34646;47.964;7.982;2023-08-21T03:53:10;25.20;92.50
47368;DHT22;34646;47.964;7.982;2023-08-21T03:59:11;24.80;86.10
47368;DHT22;34646;47.964;7.982;2023-08-21T04:05:12;25.20;92.40
47368;DHT22;34646;47.964;7.982;2023-08-21T04:11:12;24.90;86.20
47368;DHT22;34646;47.964;7.982;2023-08-21T04:17:13;25.10;92.40
47368;DHT22;34646;47.964;7.982;2023-08-21T04:23:14;24.90;86.20
47368;DHT22;34646;47.964;7.982;2023-08-21T04:29:14;25.30;91.70
47368;DHT22;34646;47.964;7.982;2023-08-21T04:35:15;25.10;86.90
47368;DHT22;34646;47.964;7.982;2023-08-21T04:41:17;24.90;92.40
47368;DHT22;34646;47.964;7.982;2023-08-21T04:47:24;25.00;92.40
47368;DHT22;34646;47.964;7.982;2023-08-21T04:53:29;25.00;92.40
47368;DHT22;34646;47.964;7.982;2023-08-21T04:59:32;25.20;92.50
47368;DHT22;34646;47.964;7.982;2023-08-21T05:05:33;25.10;92.50
47368;DHT22;34646;47.964;7.982;2023-08-21T05:11:34;24.90;85.80
47368;DHT22;34646;47.964;7.982;2023-08-21T05:17:35;24.90;92.40
47368;DHT22;34646;47.964;7.982;2023-08-21T05:23:35;25.00;85.90
47368;DHT22;34646;47.964;7.982;2023-08-21T05:29:40;24.90;92.40
47368;DHT22;34646;47.964;7.982;2023-08-21T05:35:40;25.10;86.50
47368;DHT22;34646;47.964;7.982;2023-08-21T05:41:41;25.00;92.40
47368;DHT22;34646;47.964;7.982;2023-08-21T05:47:42;24.30;85.50
47368;DHT22;34646;47.964;7.982;2023-08-21T05:53:43;24.60;92.00
47368;DHT22;34646;47.964;7.982;2023-08-21T05:59:44;25.10;86.30
47368;DHT22;34646;47.964;7.982;2023-08-21T06:05:45;25.00;92.40
47368;DHT22;34646;47.964;7.982;2023-08-21T06:11:48;24.80;92.30
47368;DHT22;34646;47.964;7.982;2023-08-21T06:17:48;24.70;86.00
47368;DHT22;34646;47.964;7.982;2023-08-21T06:23:49;25.30;92.30
47368;DHT22;34646;47.964;7.982;2023-08-21T06:29:50;25.10;86.30
47368;DHT22;34646;47.964;7.982;2023-08-21T06:35:52;24.90;92.40
47368;DHT22;34646;47.964;7.982;2023-08-21T06:41:52;25.40;86.60
47368;DHT22;34646;47.964;7.982;2023-08-21T06:47:53;24.90;90.30
47368;DHT22;34646;47.964;7.982;2023-08-21T06:53:54;25.30;86.80
47368;DHT22;34646;47.964;7.982;2023-08-21T06:59:55;24.70;92.30
47368;DHT22;34646;47.964;7.982;2023-08-21T07:05:56;25.10;86.90
47368;DHT22;34646;47.964;7.982;2023-08-21T07:11:56;24.90;92.30
47368;DHT22;34646;47.964;7.982;2023-08-21T07:17:57;25.40;87.30
47368;DHT22;34646;47.964;7.982;2023-08-21T07:23:58;25.10;92.30
47368;DHT22;34646;47.964;7.982;2023-08-21T07:29:58;24.90;86.30
47368;DHT22;34646;47.964;7.982;2023-08-21T07:36:01;24.90;92.30
47368;DHT22;34646;47.964;7.982;2023-08-21T07:42:02;25.10;92.40
47368;DHT22;34646;47.964;7.982;2023-08-21T07:48:03;24.80;86.30
47368;DHT22;34646;47.964;7.982;2023-08-21T07:54:05;25.10;92.40
47368;DHT22;34646;47.964;7.982;2023-08-21T08:00:06;25.10;86.30
47368;DHT22;34646;47.964;7.982;2023-08-21T08:06:13;25.10;92.40
47368;DHT22;34646;47.964;7.982;2023-08-21T08:12:14;25.10;86.20
47368;DHT22;34646;47.964;7.982;2023-08-21T08:18:15;25.20;92.40
47368;DHT22;34646;47.964;7.982;2023-08-21T08:24:16;24.80;86.10
47368;DHT22;34646;47.964;7.982;2023-08-21T08:30:17;25.00;92.30
47368;DHT22;34646;47.964;7.982;2023-08-21T08:36:17;24.50;86.00
47368;DHT22;34646;47.964;7.982;2023-08-21T08:42:18;25.20;92.30
47368;DHT22;34646;47.964;7.982;2023-08-21T08:48:19;25.10;86.20
47368;DHT22;34646;47.964;7.982;2023-08-21T08:54:22;25.20;92.40
47368;DHT22;34646;47.964;7.982;2023-08-21T09:00:23;25.10;92.40
47368;DHT22;34646;47.964;7.982;2023-08-21T09:06:24;24.90;92.30
47368;DHT22;34646;47.964;7.982;2023-08-21T09:12:26;25.10;92.40
47368;DHT22;34646;47.964;7.982;2023-08-21T09:18:26;25.30;86.40
47368;DHT22;34646;47.964;7.982;2023-08-21T09:24:27;25.40;92.40
47368;DHT22;34646;47.964;7.982;2023-08-21T09:30:27;25.10;86.30
47368;DHT22;34646;47.964;7.982;2023-08-21T09:36:28;25.00;92.20
47368;DHT22;34646;47.964;7.982;2023-08-21T09:42:29;25.00;86.20
47368;DHT22;34646;47.964;7.982;2023-08-21T09:48:30;25.00;91.40
47368;DHT22;34646;47.964;7.982;2023-08-21T09:54:33;25.00;92.30
47368;DHT22;34646;47.964;7.982;2023-08-21T10:00:35;25.20;92.40
47368;DHT22;34646;47.964;7.982;2023-08-21T10:06:36;25.20;92.70
47368;DHT22;34646;47.964;7.982;2023-08-21T10:12:37;25.20;92.70
47368;DHT22;34646;47.964;7.982;2023-08-21T10:18:37;25.60;87.20
47368;DHT22;34646;47.964;7.982;2023-08-21T10:24:39;25.10;89.30
47368;DHT22;34646;47.964;7.982;2023-08-21T10:30:40;24.80;86.50
47368;DHT22;34646;47.964;7.982;2023-08-21T10:37:08;25.10;92.40
47368;DHT22;34646;47.964;7.982;2023-08-21T10:43:43;25.50;92.60
47368;DHT22;34646;47.964;7.982;2023-08-21T10:49:48;25.10;92.50
47368;DHT22;34646;47.964;7.982;2023-08-21T10:56:01;25.10;92.40
47368;DHT22;34646;47.964;7.982;2023-08-21T11:02:02;25.00;92.40
47368;DHT22;34646;47.964;7.982;2023-08-21T11:08:03;25.20;92.50
47368;DHT22;34646;47.964;7.982;2023-08-21T11:14:04;25.30;86.70
47368;DHT22;34646;47.964;7.982;2023-08-21T11:20:05;25.10;92.30
47368;DHT22;34646;47.964;7.982;2023-08-21T11:26:09;25.40;92.50
47368;DHT22;34646;47.964;7.982;2023-08-21T11:38:17;25.20;92.50
47368;DHT22;34646;47.964;7.982;2023-08-21T11:44:19;25.10;92.40
47368;DHT22;34646;47.964;7.982;2023-08-21T11:50:20;25.20;92.50
47368;DHT22;34646;47.964;7.982;2023-08-21T11:56:21;25.40;87.20
47368;DHT22;34646;47.964;7.982;2023-08-21T12:02:26;25.20;92.40
47368;DHT22;34646;47.964;7.982;2023-08-21T12:08:27;25.20;92.30
47368;DHT22;34646;47.964;7.982;2023-08-21T12:14:28;25.20;87.10
47368;DHT22;34646;47.964;7.982;2023-08-21T12:20:29;25.20;92.50
47368;DHT22;34646;47.964;7.982;2023-08-21T12:26:30;25.00;92.50
47368;DHT22;34646;47.964;7.982;2023-08-21T12:32:30;25.10;86.70
47368;DHT22;34646;47.964;7.982;2023-08-21T12:38:31;25.00;92.40
47368;DHT22;34646;47.964;7.982;2023-08-21T12:44:33;25.50;92.70
47368;DHT22;34646;47.964;7.982;2023-08-21T12:50:34;25.20;92.60
47368;DHT22;34646;47.964;7.982;2023-08-21T12:56:34;25.10;87.40
47368;DHT22;34646;47.964;7.982;2023-08-21T13:02:35;25.20;92.60
47368;DHT22;34646;47.964;7.982;2023-08-21T13:08:35;25.00;87.40
47368;DHT22;34646;47.964;7.982;2023-08-21T13:14:36;25.20;92.70
47368;DHT22;34646;47.964;7.982;2023-08-21T13:20:37;25.00;86.90
47368;DHT22;34646;47.964;7.982;2023-08-21T13:26:37;25.40;92.80
47368;DHT22;34646;47.964;7.982;2023-08-21T13:32:38;24.90;86.90
47368;DHT22;34646;47.964;7.982;2023-08-21T13:38:39;25.10;91.70
47368;DHT22;34646;47.964;7.982;2023-08-21T13:44:39;25.60;88.30
47368;DHT22;34646;47.964;7.982;2023-08-21T13:50:40;25.40;92.90
47368;DHT22;34646;47.964;7.982;2023-08-21T13:56:41;25.30;93.00
47368;DHT22;34646;47.964;7.982;2023-08-21T14:02:42;25.20;87.80
47368;DHT22;34646;47.964;7.982;2023-08-21T14:08:43;24.90;92.90
47368;DHT22;34646;47.964;7.982;2023-08-21T14:14:43;25.20;87.90
47368;DHT22;34646;47.964;7.982;2023-08-21T14:20:44;25.50;90.60
47368;DHT22;34646;47.964;7.982;2023-08-21T14:26:45;24.80;87.60
47368;DHT22;34646;47.964;7.982;2023-08-21T14:32:45;25.10;93.00
47368;DHT22;34646;47.964;7.982;2023-08-21T14:38:46;25.30;87.90
47368;DHT22;34646;47.964;7.982;2023-08-21T14:44:47;25.20;93.00
47368;DHT22;34646;47.964;7.982;2023-08-21T14:50:47;25.30;88.00
47368;DHT22;34646;47.964;7.982;2023-08-21T14:56:48;25.50;92.10
47368;DHT22;34646;47.964;7.982;2023-08-21T15:02:49;25.60;88.40
47368;DHT22;34646;47.964;7.982;2023-08-21T15:08:49;25.30;93.10
47368;DHT22;34646;47.964;7.982;2023-08-21T15:14:50;25.00;87.90
47368;DHT22;34646;47.964;7.982;2023-08-21T15:20:51;25.10;93.10
47368;DHT22;34646;47.964;7.982;2023-08-21T15:26:52;25.10;88.10
47368;DHT22;34646;47.964;7.982;2023-08-21T15:32:52;25.20;93.10
47368;DHT22;34646;47.964;7.982;2023-08-21T15:38:53;25.50;88.20
47368;DHT22;34646;47.964;7.982;2023-08-21T15:44:53;25.50;93.20
47368;DHT22;34646;47.964;7.982;2023-08-21T15:50:54;25.50;88.30
47368;DHT22;34646;47.964;7.982;2023-08-21T15:56:55;25.50;92.40
47368;DHT22;34646;47.964;7.982;2023-08-21T16:02:55;25.60;88.30
47368;DHT22;34646;47.964;7.982;2023-08-21T16:08:56;25.40;93.20
47368;DHT22;34646;47.964;7.982;2023-08-21T16:14:57;25.60;89.00
47368;DHT22;34646;47.964;7.982;2023-08-21T16:20:57;25.40;93.20
47368;DHT22;34646;47.964;7.982;2023-08-21T16:26:59;25.50;93.20
47368;DHT22;34646;47.964;7.982;2023-08-21T16:33:00;25.30;88.30
47368;DHT22;34646;47.964;7.982;2023-08-21T16:39:03;25.70;93.30
47368;DHT22;34646;47.964;7.982;2023-08-21T16:45:04;25.40;93.20
47368;DHT22;34646;47.964;7.982;2023-08-21T16:51:05;25.60;93.30
47368;DHT22;34646;47.964;7.982;2023-08-21T16:57:05;25.60;88.40
47368;DHT22;34646;47.964;7.982;2023-08-21T17:03:06;25.50;92.90
47368;DHT22;34646;47.964;7.982;2023-08-21T17:09:07;25.40;93.20
47368;DHT22;34646;47.964;7.982;2023-08-21T17:15:08;25.70;93.30
47368;DHT22;34646;47.964;7.982;2023-08-21T17:21:09;25.50;93.20
47368;DHT22;34646;47.964;7.982;2023-08-21T17:27:09;25.50;87.50
47368;DHT22;34646;47.964;7.982;2023-08-21T17:33:10;25.60;93.20
47368;DHT22;34646;47.964;7.982;2023-08-21T17:39:11;25.80;88.00
47368;DHT22;34646;47.964;7.982;2023-08-21T17:45:11;25.70;93.20
47368;DHT22;34646;47.964;7.982;2023-08-21T17:51:12;25.70;93.20
47368;DHT22;34646;47.964;7.982;2023-08-21T17:57:14;25.80;93.20
47368;DHT22;34646;47.964;7.982;2023-08-21T18:03:14;25.40;87.50
47368;DHT22;34646;47.964;7.982;2023-08-21T18:09:15;25.70;93.10
47368;DHT22;34646;47.964;7.982;2023-08-21T18:15:17;25.70;93.10
47368;DHT22;34646;47.964;7.982;2023-08-21T18:21:19;25.90;87.90
47368;DHT22;34646;47.964;7.982;2023-08-21T18:27:20;26.00;93.20
47368;DHT22;34646;47.964;7.982;2023-08-21T18:33:21;26.10;88.10
47368;DHT22;34646;47.964;7.982;2023-08-21T18:39:22;25.30;92.60
47368;DHT22;34646;47.964;7.982;2023-08-21T18:45:22;25.10;87.10
47368;DHT22;34646;47.964;7.982;2023-08-21T18:51:23;25.80;91.50
47368;DHT22;34646;47.964;7.982;2023-08-21T18:57:24;25.50;92.90
47368;DHT22;34646;47.964;7.982;2023-08-21T19:03:24;25.30;87.30
47368;DHT22;34646;47.964;7.982;2023-08-21T19:09:25;25.50;92.80
47368;DHT22;34646;47.964;7.982;2023-08-21T19:15:28;25.60;92.90
47368;DHT22;34646;47.964;7.982;2023-08-21T19:21:29;25.70;92.90
47368;DHT22;34646;47.964;7.982;2023-08-21T19:27:29;25.90;87.90
47368;DHT22;34646;47.964;7.982;2023-08-21T19:33:30;25.30;92.50
47368;DHT22;34646;47.964;7.982;2023-08-21T19:39:32;25.60;92.80
47368;DHT22;34646;47.964;7.982;2023-08-21T19:45:33;25.80;92.90
47368;DHT22;34646;47.964;7.982;2023-08-21T19:51:33;25.50;87.10
47368;DHT22;34646;47.964;7.982;2023-08-21T19:57:34;25.70;92.80
47368;DHT22;34646;47.964;7.982;2023-08-21T20:03:35;25.90;87.50
47368;DHT22;34646;47.964;7.982;2023-08-21T20:09:39;25.60;92.70
47368;DHT22;34646;47.964;7.982;2023-08-21T20:15:39;25.80;92.80
47368;DHT22;34646;47.964;7.982;2023-08-21T20:21:40;25.30;86.20
47368;DHT22;34646;47.964;7.982;2023-08-21T20:27:41;25.90;92.60
47368;DHT22;34646;47.964;7.982;2023-08-21T20:33:42;25.80;87.80
47368;DHT22;34646;47.964;7.982;2023-08-21T20:39:42;25.70;92.70
47368;DHT22;34646;47.964;7.982;2023-08-21T20:45:43;25.60;92.80
47368;DHT22;34646;47.964;7.982;2023-08-21T20:51:43;26.10;87.20
47368;DHT22;34646;47.964;7.982;2023-08-21T20:57:44;26.00;91.20
47368;DHT22;34646;47.964;7.982;2023-08-21T21:03:47;25.40;92.40
47368;DHT22;34646;47.964;7.982;2023-08-21T21:09:48;25.60;87.40
47368;DHT22;34646;47.964;7.982;2023-08-21T21:15:48;25.50;92.60
47368;DHT22;34646;47.964;7.982;2023-08-21T21:21:49;25.80;92.80
47368;DHT22;34646;47.964;7.982;2023-08-21T21:27:50;25.80;92.80
47368;DHT22;34646;47.964;7.982;2023-08-21T21:33:51;25.40;86.40
47368;DHT22;34646;47.964;7.982;2023-08-21T21:39:53;26.00;92.90
47368;DHT22;34646;47.964;7.982;2023-08-21T21:45:55;25.10;86.90
47368;DHT22;34646;47.964;7.982;2023-08-21T21:51:57;25.40;92.70
47368;DHT22;34646;47.964;7.982;2023-08-21T21:57:57;25.80;86.70
47368;DHT22;34646;47.964;7.982;2023-08-21T22:03:58;25.40;91.20
47368;DHT22;34646;47.964;7.982;2023-08-21T22:09:59;25.10;86.20
47368;DHT22;34646;47.964;7.982;2023-08-21T22:16:00;25.60;92.60
47368;DHT22;34646;47.964;7.982;2023-08-21T22:22:01;25.50;92.70
47368;DHT22;34646;47.964;7.982;2023-08-21T22:28:03;25.40;92.30
47368;DHT22;34646;47.964;7.982;2023-08-21T22:34:05;25.70;92.70
47368;DHT22;34646;47.964;7.982;2023-08-21T22:40:06;26.00;86.90
47368;DHT22;34646;47.964;7.982;2023-08-21T22:46:07;25.90;92.80
47368;DHT22;34646;47.964;7.982;2023-08-21T22:52:07;25.80;86.80
47368;DHT22;34646;47.964;7.982;2023-08-21T22:58:08;25.60;92.60
47368;DHT22;34646;47.964;7.982;2023-08-21T23:04:08;25.60;92.70
47368;DHT22;34646;47.964;7.982;2023-08-21T23:10:09;25.70;92.70
47368;DHT22;34646;47.964;7.982;2023-08-21T23:16:10;25.50;92.60
47368;DHT22;34646;47.964;7.982;2023-08-21T23:22:11;25.50;86.30
47368;DHT22;34646;47.964;7.982;2023-08-21T23:28:11;25.80;90.10
47368;DHT22;34646;47.964;7.982;2023-08-21T23:34:12;25.50;92.60
47368;DHT22;34646;47.964;7.982;2023-08-21T23:40:13;25.60;92.60
47368;DHT22;34646;47.964;7.982;2023-08-21T23:46:16;25.50;92.60
47368;DHT22;34646;47.964;7.982;2023-08-21T23:52:17;25.80;86.60
47368;DHT22;34646;47.964;7.982;2023-08-21T23:58:18;25.50;92.50
